Terminal Aerodrome Forecast
Issued by NWS Cleveland, OH

Home | Current Version | Previous Version | Text Only | Print | Product List | Glossary On
Versions: 1 2 3 4 5 6 7 8 9 10 11 12 13 14 15
383
FTUS41 KCLE 311735
TAFCAK
TAF
KCAK 311735Z 3118/0118 35006KT P6SM SCT050 BKN250
     FM010200 06005KT P6SM BKN250
     FM011400 16006KT P6SM SCT040=

USA.gov is the U.S. government's official web portal to all federal, state and local government web resources and services.